Grand Island, NE (68801)

4:52 PM CDT on September 04, 2015 (GMT -0500)
Barr | | Change Station
CLOSE
Current Station
Personal Weather Station
Location: Grand Island, NE
Elevation: 1864 ft
Nearby Weather Stations

Elev 1864 ft 40.90 °N, 98.34 °W | Updated 17 seconds ago

Clear
Clear
94.8 °F
Feels Like 101 °F
N
8.9
Wind Variable Wind from West

Today
High -- | Low -- °F
--% Chance of Precip.
Yesterday
High -- | Low -- °F
Precip. -- in
7:02 AM 8:01 PM
Waning Gibbous, 55% visible
Pressure 29.77 in
Visibility 10.0 miles
Clouds Clear
Heat Index 101 °F
Dew Point 70 °F
Humidity 45%
Rainfall 0.34 in
Snow Depth Not available.
UV 6 out of 12
Pollen 8.00 out of 12
Air Quality Not available.
Flu Activity Not available.
METAR KGRI 042053Z 17014G26KT 10SM CLR 34/18 A2982 RMK AO2 PK WND 17029/1959 SLP081 T03440183 58012
Pressure 29.77 in
Visibility 10.0 miles
Clouds Clear
Heat Index 101 °F
Dew Point 70 °F
Humidity 45%
Rainfall 0.34 in
Snow Depth Not available.
UV 6 out of 12
Pollen 8.00 out of 12
Air Quality Not available.
Flu Activity Not available.
METAR KGRI 042053Z 17014G26KT 10SM CLR 34/18 A2982 RMK AO2 PK WND 17029/1959 SLP081 T03440183 58012

10-Day Weather Forecast

×

Almanac

Astronomy

Sep. 04, 2015 Rise Set
Actual Time
Civil Twilight
Nautical Twilight
Astronomical Twilight
Moon
Length of Visible Light
Length of Day
Tomorrow will be .
, % of the Moon is Illuminated

Today's Extremes

State Highs State Lows

Community

WunderPhotos

Upload Photos

1,852,297 photos uploaded!

WunderBlogs® & News

Nearby

Air Quality

  Air Quality AQ Index Pollutant
Not available.

Snow Depth

Station Depth Elevation

Earthquake Activity

City Distance Mag. Time & Date
Minimum magnitude displayed is 2.5.

Coastal Water Temperatures

Place Temperature

Stations

Nearby Weather Stations

Station Location Temp. Windchill Dew Point Humidity Wind Precip. Elev Updated Type